Address 0xa78d2c69b34cab96cace31967afe52013dfcb604

 
Txn Hash
Block
From
To
Value [Txn Fee]
0xd57a419fbd03566ef3857d211d1d79d2c88136a9f80c689082d40253fc013aa383116752021-06-15 6:53:1946 mins ago0xa78d2c69b34cab96cace31967afe52013dfcb604OUT BoringDAO: BOR Token0 BNB0.000194595
0xa1d42f960e6a2a7a008bc4eef81b29d61ca485403625f8290b1ce956348ae1c083116542021-06-15 6:52:1647 mins ago0xa78d2c69b34cab96cace31967afe52013dfcb604OUT 1inch: Router V30 BNB0.00521091
0x31d6acbbb065ef65dcc3b89acd2f20e40e85bdcc0ee758b881c0b76bc4a2adff83116462021-06-15 6:51:5248 mins ago0xa78d2c69b34cab96cace31967afe52013dfcb604OUT 1inch: Router V30 BNB0.0035316
0x36085e0e5a3e7f54123920945dfedccb7094016b044e8a4e4cede96a01388bf583116342021-06-15 6:51:1648 mins ago0xa78d2c69b34cab96cace31967afe52013dfcb604OUT 0x05185872898b6f94aa600177ef41b9334b1fa48b0 BNB0.00092859
0xc95ca2fa7e4560935fd027fb1a8f651d150193219978ca6252210da42bcfb5bf83113842021-06-15 6:38:131 hr 1 min ago0xa78d2c69b34cab96cace31967afe52013dfcb604OUT 1inch: Router V30 BNB0.0012307
0x33469cb733bbea0c08083baaacdff4fb060aa5d24ed89a1b281d5cd81894c3d983112952021-06-15 6:33:461 hr 6 mins ago0xa78d2c69b34cab96cace31967afe52013dfcb604OUT O3swap: O3 Token0 BNB0.0004443
0x2c75cfaa4484ba14dcec77a2baccb53ddaf00b535fddec1d11805619ae36288f83011072021-06-14 21:58:459 hrs 41 mins ago0xa78d2c69b34cab96cace31967afe52013dfcb604OUT 0xdfbb73c704645264e461b81e0d19d76d9c1a107b0.07284434740608 BNB0.000601725
0xb8a307109f78b1db40e74f3088bf3ea4543113889bcaf58204c489518be8710283010922021-06-14 21:58:009 hrs 42 mins ago0xa78d2c69b34cab96cace31967afe52013dfcb604OUT 1inch: Router V30 BNB0.00567246
0xa962228992ae261ab87058190f90a11239aeedd4177bd004a5d615ddad28712883008412021-06-14 21:44:479 hrs 55 mins ago0xa78d2c69b34cab96cace31967afe52013dfcb604OUT Umbrella Network: UMB Token0.005 BNB0.000506785
0xb2f6967f5a00864750321322038605d11337a168a208ab2b92b992b20020e58a83008322021-06-14 21:44:179 hrs 55 mins ago0xa78d2c69b34cab96cace31967afe52013dfcb604OUT 1inch: Router V30 BNB0.00526548
0xff8a235f550990213599f8fe41cc123092368d556dab730769679fdae73746a383003542021-06-14 21:19:1710 hrs 20 mins ago0xa78d2c69b34cab96cace31967afe52013dfcb604OUT 1inch: Router V30 BNB0.00307327
0xb4be8ffeb266d5a2d60100dc9608c0f9d324b06c19e9edadc8df7d43b9c7e96a83002172021-06-14 21:12:2610 hrs 27 mins ago0xa78d2c69b34cab96cace31967afe52013dfcb604OUT UniCrypt: UNCX Token0 BNB0.000769945
0x63b99339426cd947aa78a01b2a132540a77588fbab25959126f674a5a170764a83002092021-06-14 21:12:0210 hrs 28 mins ago0xa78d2c69b34cab96cace31967afe52013dfcb604OUT 1inch: Router V30 BNB0.00428478
0x2fe261fd7ea24b5d36ad00c81f575c14775cbef49ea6d035357fa835097c844783001802021-06-14 21:10:3510 hrs 29 mins ago0xa78d2c69b34cab96cace31967afe52013dfcb604OUT 1inch: Router V30 BNB0.00626013
0x99c9b22d3d3699cdb7b1a3c90aa43f1a92d08ef1df4aa822b02e0d509d745e7d82997782021-06-14 20:50:1310 hrs 49 mins ago0xa78d2c69b34cab96cace31967afe52013dfcb604OUT 0x076ddce096c93dcf5d51fe346062bf0ba95234930 BNB0.000181025
0x8a4aa9eb78a0c2ad473bcc71fde299108973e6304153e63cb7e779a27dd39f4082997662021-06-14 20:49:3710 hrs 50 mins ago0xa78d2c69b34cab96cace31967afe52013dfcb604OUT 1inch: Router V30 BNB0.005864775
0x894fb4c2dd3bfa024b0309267d523f46d4c1c533b17b4b56678d59b5a29d9f2782993402021-06-14 20:27:0011 hrs 13 mins ago0xa78d2c69b34cab96cace31967afe52013dfcb604OUT 0x0e128fb9f266f0cfedeb3b789f6fd4af50d51b840.005 BNB0.000581785
0xf6710da87bce971518cdeb0ccdba9b6bb250ce8c3149f3866ac38d543d58858582993172021-06-14 20:25:5111 hrs 14 mins ago0xa78d2c69b34cab96cace31967afe52013dfcb604OUT 1inch: Router V30 BNB0.006498105
0x1fbe41feb9522a07f52e3a5eef17aad77e2e31abedbec60dd55eff0b91a668f982961732021-06-14 17:48:0113 hrs 52 mins ago0xa78d2c69b34cab96cace31967afe52013dfcb604OUT 0x83e6f1e41cdd28eaceb20cb649155049fac3d5aa0.005 BNB0.000506665
0x73a82a99df0113ee59420203f5c22c96306effbf6cd97bec2d331c84ec5e415a82961052021-06-14 17:44:3713 hrs 55 mins ago0xa78d2c69b34cab96cace31967afe52013dfcb604OUT 0x83e6f1e41cdd28eaceb20cb649155049fac3d5aa0.005 BNB0.00128918
0xca8caf31ef0122b2dc708ce584e9f42d698cb4eb79f102707cba510e691d12e882955862021-06-14 17:18:3914 hrs 21 mins ago0xa78d2c69b34cab96cace31967afe52013dfcb604OUT 1inch: Router V30 BNB0.00659588
0xda02f4006d5abd9a39280d919b03601c587c7ad3640ffe46ae757a672060b0bc82955782021-06-14 17:18:1514 hrs 21 mins ago0xa78d2c69b34cab96cace31967afe52013dfcb604OUT Seascape: pCWS Token0 BNB0.00044509
0x49a50c4444b67196a688a9922ddf7f21df82b9e56f087759c29f3ee3b88785c482953462021-06-14 17:06:2614 hrs 33 mins ago0xa78d2c69b34cab96cace31967afe52013dfcb604OUT 1inch: Router V30 BNB0.00737154
0x12d65f5ba4994b7c93acbc3fc75688b65e5893c62a099b5b27b265a1b351320382949412021-06-14 16:46:0714 hrs 54 mins ago0xa78d2c69b34cab96cace31967afe52013dfcb604OUT Anyswap: XED Token0 BNB0.000193535
0x070a28082066bc0d402054afa25b2f4c9df4a128be24da2a35daf3d03a4632f482948952021-06-14 16:43:4914 hrs 56 mins ago0xa78d2c69b34cab96cace31967afe52013dfcb604OUT 1inch: Router V30 BNB0.005659875
[ Download CSV Export 
Latest 8 internal transactions
Parent Txn Hash Block From To Value
0xff8a235f550990213599f8fe41cc123092368d556dab730769679fdae73746a383003542021-06-14 21:19:1710 hrs 20 mins ago 0xc1e16013a158d57a60d6aa5bb3108722b0ac6df50xa78d2c69b34cab96cace31967afe52013dfcb6042.167107076360266617 BNB
0xea1edfd5ff42943f708f224b60836f057dceb18e9f3d39f5c2c96025fe56c57981134712021-06-08 8:39:356 days 23 hrs ago 0x1a9bb5118e65064842172e00b1d0e9223d05a6b00xa78d2c69b34cab96cace31967afe52013dfcb6040.00200119375 BNB
0xa756ec13812b8599419a66acc2f9f1d9dc6eceb4a200fa4630c2444c053b28ad81107812021-06-08 6:25:057 days 1 hr ago 0xc1e16013a158d57a60d6aa5bb3108722b0ac6df50xa78d2c69b34cab96cace31967afe52013dfcb6042.324361784382643184 BNB
0xd38937cc3d15733a2c4bb50631bac805af589b367a53afa8fb971904d9db146a80955642021-06-07 17:42:227 days 13 hrs ago 0xc1e16013a158d57a60d6aa5bb3108722b0ac6df50xa78d2c69b34cab96cace31967afe52013dfcb6042.587243198390953014 BNB
0x9bfb7470b496580211922cf9b49bfe51fc88a3d1c34651244ec1a53fd75b51c580947812021-06-07 17:03:137 days 14 hrs ago 0xc1e16013a158d57a60d6aa5bb3108722b0ac6df50xa78d2c69b34cab96cace31967afe52013dfcb6041.279176770476619771 BNB
0xedfdff3e81dd9c4ab76c5fde691a2be266e24f3d646cf59fc5f4b9996065ddc680371462021-06-05 16:56:339 days 14 hrs ago 0xc1e16013a158d57a60d6aa5bb3108722b0ac6df50xa78d2c69b34cab96cace31967afe52013dfcb6041.006561081762921438 BNB
0xac5284ccd1b3efa28d4c87bb89986ebaedce2ae5205e45cf06b56f3b56fee2da79993222021-06-04 9:22:1110 days 22 hrs ago 0xc1e16013a158d57a60d6aa5bb3108722b0ac6df50xa78d2c69b34cab96cace31967afe52013dfcb6041.0070000398016942 BNB
0x1896dc5d7a87c61b9dd965df654e7a3ee1afd8211afbad5cc3b82ae47c7cac5679682132021-06-03 7:19:0212 days 21 mins ago 0x1a9bb5118e65064842172e00b1d0e9223d05a6b00xa78d2c69b34cab96cace31967afe52013dfcb6040.0015282875 BNB
[ Download CSV Export 
Loading

Contract Name:
0 BNB

Compiler Version
0

Optimization Enabled:
0 BNB

Other Settings:
-NA-
Block Transaction Gas Used Reward
Age Block Fee Address BC Fee Address Voting Power Jailed Incoming
Block Uncle Number Difficulty Gas Used Reward
Loading
Loading
Make sure to use the "Vote Down" button for any spammy posts, and the "Vote Up" for interesting conversations.